Time;durP1;ratioP1;P1;durP2;ratioP2;P2;SDS_P1;SDS_P2;PMS_P1;PMS_P2;Temp;Humidity;BMP_temperature;BMP_pressure;BME280_temperature;BME280_humidity;BME280_pressure;Samples;Min_cycle;Max_cycle;Signal;HPM_P1;HPM_P2
2022/02/04 00:20:40;;;;;;;23.00;16.40;;;;;;;4.54;78.36;100126.75;109288;1264;21987;-80
2022/02/04 00:23:15;;;;;;;21.00;14.60;;;;;;;4.58;78.43;100126.32;109244;1265;22084;-79
2022/02/04 00:31:47;;;;;;;20.20;14.00;;;;;;;4.68;78.41;100129.83;109816;1262;23040;-75
2022/02/04 00:34:08;;;;;;;22.60;13.50;;;;;;;4.71;78.43;100131.16;109951;1259;21973;-76
2022/02/04 00:39:27;;;;;;;21.00;13.80;;;;;;;4.76;78.61;100126.58;109775;1260;21988;-74
2022/02/04 00:42:03;;;;;;;15.10;13.30;;;;;;;4.79;78.47;100127.29;109967;1260;21977;-74
2022/02/04 00:44:36;;;;;;;20.90;14.00;;;;;;;4.81;78.46;100128.00;110336;1256;22765;-75
2022/02/04 00:47:44;;;;;;;17.40;12.80;;;;;;;4.82;78.54;100126.68;110382;1254;22636;-74
2022/02/04 00:50:26;;;;;;;19.60;13.70;;;;;;;4.86;78.66;100124.98;110510;1255;21978;-75
2022/02/04 00:53:14;;;;;;;18.20;13.50;;;;;;;4.90;78.62;100121.76;110238;1254;21975;-75
2022/02/04 00:56:17;;;;;;;17.10;13.30;;;;;;;4.95;78.55;100123.15;110937;1250;22060;-75
2022/02/04 01:27:46;;;;;;;11.70;9.70;;;;;;;5.00;78.47;100095.79;110939;1249;21982;-75
2022/02/04 01:30:20;;;;;;;13.80;10.90;;;;;;;5.03;78.53;100093.95;110914;1250;22007;-76
2022/02/04 01:32:49;;;;;;;14.10;10.00;;;;;;;5.04;78.43;100087.71;110902;1250;21962;-77
2022/02/04 01:35:19;;;;;;;14.10;10.60;;;;;;;5.02;78.30;100081.48;110869;1250;21956;-74
2022/02/04 01:37:50;;;;;;;13.00;9.90;;;;;;;5.01;78.41;100079.44;110998;1250;21949;-75
2022/02/04 01:40:20;;;;;;;13.50;9.90;;;;;;;5.00;78.30;100077.81;109988;1256;23593;-74
2022/02/04 01:42:53;;;;;;;17.30;11.50;;;;;;;5.01;78.46;100074.59;110275;1256;23763;-76
2022/02/04 01:45:37;;;;;;;14.20;11.00;;;;;;;5.04;78.56;100072.73;110059;1257;23723;-75
2022/02/04 01:48:06;;;;;;;14.60;10.70;;;;;;;5.05;78.48;100077.19;109599;1261;21979;-75
2022/02/04 01:50:38;;;;;;;15.60;11.10;;;;;;;5.05;78.50;100074.38;109607;1261;22019;-75
2022/02/04 01:53:09;;;;;;;14.50;11.80;;;;;;;5.06;78.49;100072.72;109577;1261;23696;-75
2022/02/04 01:55:42;;;;;;;15.20;11.00;;;;;;;5.05;78.46;100072.27;109559;1263;23475;-74
2022/02/04 01:58:14;;;;;;;13.90;11.30;;;;;;;5.05;78.55;100066.35;110134;1253;22870;-74
2022/02/04 02:00:51;;;;;;;13.70;11.40;;;;;;;5.07;78.63;100065.98;109986;1260;22444;-74
2022/02/04 02:03:24;;;;;;;16.80;13.80;;;;;;;5.09;78.55;100063.66;110126;1259;22615;-74
2022/02/04 02:05:58;;;;;;;17.20;13.30;;;;;;;5.10;78.48;100058.05;109978;1254;22101;-74
2022/02/04 02:08:27;;;;;;;17.30;12.20;;;;;;;5.11;78.56;100055.84;110361;1254;22766;-75
2022/02/04 02:11:10;;;;;;;15.30;12.80;;;;;;;5.13;78.65;100055.31;109954;1259;22095;-75
2022/02/04 02:13:52;;;;;;;18.30;13.20;;;;;;;5.15;78.53;100049.34;110033;1259;22030;-74
2022/02/04 02:44:17;;;;;;;15.90;11.20;;;;;;;4.97;78.37;100039.13;110482;1254;22070;-75
2022/02/04 02:49:50;;;;;;;16.70;12.60;;;;;;;4.96;78.53;100037.00;110499;1254;23673;-75
2022/02/04 02:55:16;;;;;;;17.40;12.90;;;;;;;4.98;78.60;100030.48;110873;1250;21959;-75
2022/02/04 03:00:31;;;;;;;15.20;11.50;;;;;;;4.94;78.42;100032.65;111002;1250;22039;-74
2022/02/04 03:03:08;;;;;;;16.40;12.10;;;;;;;4.95;78.56;100033.59;110761;1250;22009;-75
2022/02/04 03:05:45;;;;;;;18.50;12.20;;;;;;;4.95;78.44;100033.59;110639;1250;21961;-74
2022/02/04 03:08:20;;;;;;;15.50;11.60;;;;;;;4.91;78.37;100030.92;110811;1248;23033;-74
2022/02/04 03:10:56;;;;;;;16.20;11.70;;;;;;;4.92;78.53;100026.45;110998;1249;23671;-75
2022/02/04 03:13:28;;;;;;;19.60;12.10;;;;;;;4.96;78.65;100023.54;110881;1250;22026;-75
2022/02/04 03:16:03;;;;;;;17.10;12.50;;;;;;;4.99;78.51;100020.34;110879;1250;22094;-76
2022/02/04 03:18:40;;;;;;;17.20;12.10;;;;;;;4.98;78.40;100012.55;110775;1250;21970;-76
2022/02/04 03:21:19;;;;;;;20.50;13.20;;;;;;;4.96;78.46;100009.20;110181;1256;23635;-75
2022/02/04 03:23:59;;;;;;;16.30;12.50;;;;;;;4.98;78.44;100005.70;109920;1260;21981;-75
2022/02/04 03:29:27;;;;;;;15.80;11.50;;;;;;;4.93;78.48;100009.98;109507;1263;22062;-74
2022/02/04 03:32:05;;;;;;;19.40;11.90;;;;;;;4.91;78.26;100001.28;109538;1264;23592;-74
2022/02/04 03:34:42;;;;;;;19.70;12.30;;;;;;;4.87;78.20;100002.05;109552;1263;21974;-76
2022/02/04 03:37:12;;;;;;;18.60;13.50;;;;;;;4.83;78.37;100003.41;109560;1263;21966;-75
2022/02/04 03:39:47;;;;;;;22.10;13.80;;;;;;;4.84;78.43;100009.46;109208;1263;22727;-76
2022/02/04 03:42:18;;;;;;;16.10;11.30;;;;;;;4.86;78.46;100012.38;109665;1261;21985;-75
2022/02/04 03:44:50;;;;;;;19.30;13.40;;;;;;;4.86;78.31;100007.67;110204;1259;22403;-75
2022/02/04 03:47:23;;;;;;;15.70;12.10;;;;;;;4.87;78.36;100009.15;110100;1256;22387;-75
2022/02/04 03:49:54;;;;;;;15.40;12.50;;;;;;;4.91;78.57;100010.85;110321;1256;21958;-75
2022/02/04 03:52:25;;;;;;;19.30;12.90;;;;;;;4.98;78.65;100015.29;110479;1256;23677;-74
2022/02/04 03:54:54;;;;;;;20.60;13.00;;;;;;;5.02;78.43;100019.37;110154;1256;21979;-75
2022/02/04 03:57:26;;;;;;;17.50;12.60;;;;;;;5.02;78.28;100021.98;110223;1256;22508;-74
2022/02/04 03:59:58;;;;;;;24.30;14.20;;;;;;;5.04;78.41;100021.27;110472;1256;21972;-74
2022/02/04 04:02:28;;;;;;;20.50;13.20;;;;;;;5.04;78.18;100019.34;110481;1256;21991;-75
2022/02/04 04:04:58;;;;;;;17.40;12.90;;;;;;;5.01;78.14;100025.39;110572;1250;23620;-74
2022/02/04 04:07:30;;;;;;;15.80;12.60;;;;;;;4.99;78.16;100028.16;110788;1250;148311;-75
2022/02/04 04:10:08;;;;;;;20.20;13.70;;;;;;;5.00;78.22;100028.63;111180;1249;23699;-75
2022/02/04 04:12:42;;;;;;;21.60;14.90;;;;;;;5.02;78.32;100027.23;110978;1250;21975;-75
2022/02/04 04:15:16;;;;;;;20.10;14.60;;;;;;;5.03;78.19;100024.63;111001;1250;21956;-75
2022/02/04 04:17:48;;;;;;;20.60;14.30;;;;;;;5.06;78.17;100025.98;111047;1250;22047;-75
2022/02/04 04:20:28;;;;;;;21.90;14.90;;;;;;;5.07;78.15;100021.14;110249;1254;23081;-75
2022/02/04 04:23:10;;;;;;;30.00;17.70;;;;;;;5.07;78.24;100022.00;109668;1261;23797;-75
2022/02/04 04:25:40;;;;;;;32.80;18.60;;;;;;;5.07;78.15;100018.14;109984;1260;22000;-74
2022/02/04 04:28:10;;;;;;;32.00;17.00;;;;;;;5.05;77.94;100011.95;109816;1260;23204;-74
2022/02/04 04:30:39;;;;;;;36.50;21.40;;;;;;;4.99;77.82;100010.51;109901;1260;23678;-75
2022/02/04 04:33:10;;;;;;;41.30;23.10;;;;;;;4.98;77.90;100015.48;109920;1260;23903;-75
2022/02/04 04:35:40;;;;;;;;;;;;;;;4.96;77.81;100021.46;109179;1266;21963;-75
2022/02/04 04:38:23;;;;;;;37.10;22.00;;;;;;;4.87;78.04;100016.46;109404;1262;23039;-75
2022/02/04 04:41:26;;;;;;;30.60;19.30;;;;;;;4.90;78.28;100015.00;109773;1259;21988;-75
2022/02/04 05:30:40;;;;;;;33.80;28.70;;;;;;;4.82;78.19;99987.33;110475;1254;22966;-74
2022/02/04 05:33:12;;;;;;;36.60;32.70;;;;;;;4.83;78.18;99982.67;110478;1254;21967;-74
2022/02/04 05:35:41;;;;;;;33.90;30.50;;;;;;;4.83;78.08;99979.71;110360;1254;23839;-76
2022/02/04 05:38:14;;;;;;;37.40;30.20;;;;;;;4.79;77.93;99976.77;110307;1254;23723;-75
2022/02/04 05:40:47;;;;;;;;;;;;;;;4.75;77.94;99976.98;110364;1254;23771;-76
2022/02/04 05:43:40;;;;;;;30.50;23.20;;;;;;;4.64;78.09;99979.28;110514;1254;23723;-75
2022/02/04 05:46:30;;;;;;;35.20;23.40;;;;;;;4.60;78.26;99981.79;110644;1250;22214;-75
2022/02/04 05:49:06;;;;;;;31.10;21.60;;;;;;;4.60;78.24;99982.84;110765;1250;22361;-75
2022/02/04 05:51:52;;;;;;;32.70;23.20;;;;;;;4.62;78.40;99985.48;110630;1250;22383;-75
2022/02/04 05:54:44;;;;;;;28.50;20.20;;;;;;;4.67;78.55;99988.08;110751;1250;22023;-75
2022/02/04 05:57:23;;;;;;;24.80;20.20;;;;;;;4.69;78.39;99989.31;111011;1249;21963;-76
2022/02/04 06:14:29;;;;;;;30.90;22.00;;;;;;;4.57;78.30;99993.58;110264;1256;23650;-75
2022/02/04 06:22:37;;;;;;;36.40;25.70;;;;;;;4.50;78.48;99996.81;109073;1264;22452;-75
2022/02/04 06:25:08;;;;;;;32.30;26.30;;;;;;;4.53;78.77;99997.22;109345;1264;23238;-75
2022/02/04 06:27:43;;;;;;;33.50;26.30;;;;;;;4.56;78.76;99998.05;109239;1264;21963;-75
2022/02/04 06:30:13;;;;;;;34.30;25.60;;;;;;;4.58;78.84;99999.23;109273;1263;21988;-75
2022/02/04 06:32:43;;;;;;;31.50;24.60;;;;;;;4.62;78.90;99998.37;109250;1264;21987;-77
2022/02/04 06:35:12;;;;;;;36.30;25.30;;;;;;;4.70;79.28;99997.98;109292;1263;22312;-74
2022/02/04 06:37:49;;;;;;;37.80;29.50;;;;;;;4.81;79.48;100002.23;109747;1262;22028;-74
2022/02/04 06:40:37;;;;;;;;;;;;;;;;;;;;;
2022/02/04 06:43:10;;;;;;;28.60;21.50;;;;;;;4.79;78.66;99996.46;110118;1257;22918;-76
2022/02/04 06:45:40;;;;;;;34.70;24.10;;;;;;;4.79;78.84;99997.33;109939;1259;21969;-75
2022/02/04 06:48:10;;;;;;;31.10;24.00;;;;;;;4.83;78.90;100002.71;109915;1250;21922;-76
2022/02/04 06:50:39;;;;;;;29.70;22.40;;;;;;;4.88;78.99;100003.34;110199;1256;23035;-75
2022/02/04 06:53:15;;;;;;;30.00;24.60;;;;;;;4.93;79.09;99999.73;110390;1256;23596;-76
2022/02/04 06:55:44;;;;;;;27.10;23.80;;;;;;;4.93;78.77;100005.42;110631;1256;21960;-77
2022/02/04 06:58:14;;;;;;;32.40;28.20;;;;;;;4.94;78.94;100006.73;110534;1255;22028;-77
2022/02/04 07:01:00;;;;;;;37.90;29.90;;;;;;;4.96;78.83;100006.43;110323;1255;23668;-80
2022/02/04 07:03:41;;;;;;;37.70;29.40;;;;;;;4.98;78.75;100008.57;110730;1256;23552;-80
2022/02/04 07:06:19;;;;;;;36.90;29.70;;;;;;;4.95;78.54;100008.14;110432;1256;22558;-82
2022/02/04 07:09:13;;;;;;;33.50;26.40;;;;;;;4.92;78.66;100008.83;110618;1250;23574;-79
2022/02/04 07:19:58;;;;;;;43.20;32.70;;;;;;;5.00;78.94;100003.63;110875;1250;24880;-78
2022/02/04 07:22:38;;;;;;;41.00;29.20;;;;;;;5.04;78.96;100009.23;110737;1250;23713;-80
2022/02/04 07:25:33;;;;;;;55.90;39.20;;;;;;;5.07;78.91;100011.55;110812;1250;24369;-84
2022/02/04 07:28:08;;;;;;;61.80;44.30;;;;;;;5.11;78.97;100007.66;110689;1250;22950;-80
2022/02/04 07:30:48;;;;;;;54.60;37.20;;;;;;;5.18;79.11;100007.19;110849;1250;22043;-80
2022/02/04 07:33:25;;;;;;;77.40;50.80;;;;;;;5.24;78.94;100008.58;110815;1250;23050;-80
2022/02/04 07:41:46;;;;;;;41.30;31.00;;;;;;;5.37;78.61;100010.70;109207;1266;22132;-80
2022/02/04 07:44:22;;;;;;;52.20;44.90;;;;;;;5.40;78.62;100008.77;108680;1273;22050;-79
2022/02/04 07:47:01;;;;;;;60.80;53.30;;;;;;;5.45;78.50;100011.19;108780;1273;22006;-80
2022/02/04 07:49:34;;;;;;;56.70;46.70;;;;;;;5.48;78.37;100015.64;108722;1273;21985;-80
2022/02/04 07:52:13;;;;;;;49.30;44.10;;;;;;;5.51;78.25;100015.35;108814;1273;23612;-77
2022/02/04 07:54:46;;;;;;;39.90;33.40;;;;;;;5.53;78.14;100009.88;109126;1270;22478;-79
2022/02/04 07:57:29;;;;;;;38.70;33.00;;;;;;;5.52;77.76;100010.16;108933;1270;23847;-81
2022/02/04 08:00:14;;;;;;;40.60;28.70;;;;;;;5.49;77.59;100007.51;109103;1270;21987;-77
2022/02/04 08:02:51;;;;;;;50.50;32.20;;;;;;;5.47;77.52;100002.58;109191;1262;23097;-78
2022/02/04 08:05:47;;;;;;;47.70;37.50;;;;;;;5.52;77.73;100001.92;109344;1267;22002;-79
2022/02/04 08:08:35;;;;;;;41.40;30.40;;;;;;;5.52;77.46;100001.40;109299;1264;23601;-80
2022/02/04 08:11:28;;;;;;;43.10;28.20;;;;;;;5.54;77.63;100001.95;109485;1263;22748;-78
2022/02/04 08:14:49;;;;;;;38.00;29.90;;;;;;;5.58;77.70;99998.20;109441;1263;21999;-79
2022/02/04 08:23:00;;;;;;;42.40;32.40;;;;;;;5.72;77.60;100003.09;109008;1269;21988;-78
2022/02/04 08:48:18;;;;;;;38.50;28.50;;;;;;;6.01;76.81;99994.35;109907;1261;21965;-76
2022/02/04 08:56:25;;;;;;;34.40;28.40;;;;;;;6.11;76.63;100007.05;108882;1270;22182;-76
2022/02/04 08:59:11;;;;;;;35.30;27.40;;;;;;;6.09;76.34;100009.10;108993;1267;23720;-76
2022/02/04 09:01:53;;;;;;;31.50;25.70;;;;;;;6.10;76.48;100009.34;109177;1266;21948;-77
2022/02/04 09:04:40;;;;;;;;;;;;;;;6.16;76.58;100013.17;109151;1267;21976;-76
2022/02/04 09:07:21;;;;;;;34.70;26.40;;;;;;;6.15;76.73;100011.59;109206;1267;22523;-75
2022/02/04 09:09:59;;;;;;;39.60;29.10;;;;;;;6.18;76.64;100013.69;108936;1267;22973;-76
2022/02/04 09:23:30;;;;;;;34.00;27.90;;;;;;;6.39;75.94;100016.42;110305;1256;22029;-75
2022/02/04 09:26:05;;;;;;;40.50;33.60;;;;;;;6.40;75.84;100014.07;110505;1256;24357;-75
2022/02/04 09:28:36;;;;;;;43.40;35.10;;;;;;;6.44;76.06;100013.52;110225;1256;22990;-75
2022/02/04 09:31:08;;;;;;;34.80;27.10;;;;;;;6.49;76.03;100010.55;110294;1258;22422;-76
2022/02/04 09:33:37;;;;;;;35.10;30.20;;;;;;;6.52;75.88;100008.98;109862;1257;21979;-76
2022/02/04 09:36:10;;;;;;;49.40;39.60;;;;;;;6.57;75.87;100009.05;110182;1256;22053;-76
2022/02/04 09:38:41;;;;;;;40.00;32.60;;;;;;;6.61;75.82;100012.89;110485;1256;23685;-76
2022/02/04 09:41:13;;;;;;;42.50;35.50;;;;;;;6.65;75.80;100012.47;109775;1260;22069;-76
2022/02/04 09:43:44;;;;;;;45.00;36.40;;;;;;;6.69;75.71;100013.98;109969;1261;23058;-76
2022/02/04 09:46:16;;;;;;;43.20;36.70;;;;;;;6.74;75.75;100014.79;109805;1262;23799;-76
2022/02/04 09:48:52;;;;;;;42.90;34.80;;;;;;;6.79;75.73;100011.64;109687;1261;24324;-76
2022/02/04 09:51:48;;;;;;;39.80;31.90;;;;;;;6.80;75.44;100014.43;109465;1262;21987;-76
2022/02/04 10:20:00;;;;;;;39.80;34.60;;;;;;;7.41;75.59;99995.77;110548;1253;22401;-76
2022/02/04 10:22:27;;;;;;;37.80;33.70;;;;;;;7.52;75.31;99996.36;109980;1259;23042;-76
2022/02/04 10:24:58;;;;;;;36.10;32.30;;;;;;;7.61;75.19;99992.27;109824;1259;21995;-76
2022/02/04 10:27:35;;;;;;;42.80;38.10;;;;;;;7.67;75.00;99990.28;110160;1259;22466;-76
2022/02/04 10:30:13;;;;;;;40.50;36.10;;;;;;;7.72;74.68;99992.08;110471;1253;22667;-75
2022/02/04 10:32:50;;;;;;;51.60;45.50;;;;;;;7.73;74.43;99990.88;110476;1253;23104;-76
2022/02/04 10:35:37;;;;;;;40.70;36.40;;;;;;;7.76;74.28;99986.96;110639;1253;23019;-75
2022/02/04 10:38:19;;;;;;;42.50;37.80;;;;;;;7.77;74.20;99982.64;110659;1253;23061;-76
2022/02/04 10:41:03;;;;;;;42.40;37.80;;;;;;;7.79;74.26;99979.58;110851;1250;23586;-75
2022/02/04 10:46:44;;;;;;;41.00;36.40;;;;;;;8.06;74.76;99975.93;110941;1250;23683;-75
2022/02/04 10:49:38;;;;;;;41.90;36.60;;;;;;;8.11;74.08;99975.55;110885;1249;22727;-75
2022/02/04 10:52:42;;;;;;;37.10;33.50;;;;;;;8.14;73.80;99974.33;110821;1250;21969;-76
2022/02/04 11:01:09;;;;;;;38.00;34.20;;;;;;;8.05;72.86;99976.15;110893;1250;22891;-75
2022/02/04 11:03:47;;;;;;;41.00;36.70;;;;;;;8.02;72.91;99975.45;110977;1250;23193;-75
2022/02/04 11:06:45;;;;;;;39.10;35.00;;;;;;;8.01;72.92;99969.40;110904;1250;21930;-76
2022/02/04 11:09:23;;;;;;;39.40;35.20;;;;;;;8.00;72.73;99965.65;110994;1250;21962;-76
2022/02/04 11:12:13;;;;;;;42.10;37.80;;;;;;;8.01;72.72;99968.35;110883;1250;22405;-76
2022/02/04 11:52:39;;;;;;;32.50;29.10;;;;;;;8.08;71.51;99934.32;110230;1256;23047;-76
2022/02/04 11:55:11;;;;;;;38.00;33.90;;;;;;;8.08;71.80;99934.89;110245;1257;22829;-75
2022/02/04 11:58:03;;;;;;;41.70;37.20;;;;;;;8.11;71.75;99935.59;110463;1256;21973;-76
2022/02/04 12:00:41;;;;;;;46.00;41.20;;;;;;;8.12;71.36;99938.33;110295;1256;23070;-76
2022/02/04 12:03:39;;;;;;;37.80;33.80;;;;;;;8.09;71.26;99938.09;110812;1250;22182;-76
2022/02/04 12:06:08;;;;;;;42.70;38.00;;;;;;;8.07;71.30;99937.82;110804;1250;23065;-76
2022/02/04 12:08:40;;;;;;;36.90;33.10;;;;;;;8.03;71.26;99936.71;110914;1251;22795;-76
2022/02/04 12:11:18;;;;;;;50.30;44.90;;;;;;;7.99;71.23;99937.14;110887;1250;22892;-76
2022/02/04 12:14:12;;;;;;;37.50;33.80;;;;;;;7.98;71.28;99937.14;110736;1250;21966;-77
2022/02/04 12:17:00;;;;;;;;;;;;;;;7.96;71.25;99933.16;110905;1250;21960;-75
2022/02/04 12:19:38;;;;;;;32.80;29.50;;;;;;;7.88;71.45;99925.40;111110;1250;23033;-77
2022/02/04 12:22:09;;;;;;;36.10;32.40;;;;;;;7.89;71.72;99918.77;110690;1256;22023;-75
2022/02/04 12:24:43;;;;;;;37.40;33.60;;;;;;;7.95;71.69;99921.09;110329;1256;21968;-75
2022/02/04 12:27:34;;;;;;;34.10;30.80;;;;;;;7.98;71.55;99922.02;110212;1256;22010;-75
2022/02/04 12:30:36;;;;;;;40.90;36.90;;;;;;;7.99;71.34;99920.50;110268;1259;23543;-76
2022/02/04 12:33:13;;;;;;;40.80;36.60;;;;;;;7.98;71.32;99915.40;110264;1259;23756;-76
2022/02/04 12:35:42;;;;;;;40.50;36.30;;;;;;;7.95;71.34;99913.36;109821;1262;21997;-76
2022/02/04 12:38:11;;;;;;;42.20;37.70;;;;;;;7.93;71.23;99906.05;109737;1262;22008;-76
2022/02/04 12:40:40;;;;;;;37.10;33.30;;;;;;;7.95;71.35;99908.02;110016;1256;21971;-76
2022/02/04 12:43:10;;;;;;;46.40;37.10;;;;;;;7.95;71.21;99906.02;110439;1256;22997;-76
2022/02/04 12:45:47;;;;;;;35.80;31.50;;;;;;;7.97;71.29;99905.59;109831;1263;22081;-75
2022/02/04 12:48:19;;;;;;;29.30;26.30;;;;;;;7.97;71.14;99899.69;109993;1259;21990;-75
2022/02/04 12:50:56;;;;;;;60.20;45.20;;;;;;;7.94;71.11;99900.14;110021;1260;21975;-76
2022/02/04 12:53:28;;;;;;;34.60;31.10;;;;;;;7.94;71.18;99902.94;109693;1259;24273;-76
2022/02/04 12:56:17;;;;;;;;;;;;;;;7.93;71.01;99902.43;109668;1261;21957;-76
2022/02/04 13:10:28;;;;;;;33.20;29.20;;;;;;;7.86;71.24;99887.90;110389;1256;21982;-76
2022/02/04 13:13:04;;;;;;;28.50;25.30;;;;;;;7.80;70.93;99883.82;110294;1256;23678;-76
2022/02/04 13:15:47;;;;;;;40.00;35.40;;;;;;;7.73;71.08;99876.55;110237;1256;22893;-75
2022/02/04 13:18:33;;;;;;;38.20;34.10;;;;;;;7.70;71.20;99877.41;109908;1259;23153;-76
2022/02/04 13:21:03;;;;;;;38.10;30.60;;;;;;;7.66;71.20;99878.25;110168;1259;21987;-76
2022/02/04 13:23:37;;;;;;;42.60;38.10;;;;;;;7.62;71.18;99876.40;109867;1259;21976;-76
2022/02/04 13:26:06;;;;;;;36.70;32.50;;;;;;;7.62;71.29;99877.39;110002;1259;21971;-76
2022/02/04 13:28:59;;;;;;;41.00;36.70;;;;;;;7.66;71.33;99876.91;109372;1264;21979;-77
2022/02/04 13:31:46;;;;;;;40.50;36.20;;;;;;;7.66;71.47;99877.52;109163;1265;24484;-75
2022/02/04 13:34:26;;;;;;;39.00;34.90;;;;;;;7.68;71.39;99876.67;109392;1265;22171;-75
2022/02/04 13:37:03;;;;;;;34.40;30.80;;;;;;;7.69;71.35;99880.34;109301;1262;21990;-75
2022/02/04 13:39:59;;;;;;;33.50;30.20;;;;;;;7.72;71.46;99877.24;109605;1262;23695;-76
2022/02/04 13:42:45;;;;;;;35.60;31.80;;;;;;;7.75;71.45;99878.67;109678;1262;23973;-75
2022/02/04 13:45:38;;;;;;;36.80;31.90;;;;;;;7.77;71.39;99874.60;109031;1270;22009;-76
2022/02/04 13:48:34;;;;;;;34.60;30.90;;;;;;;7.77;71.29;99873.38;109184;1264;22433;-76
2022/02/04 13:51:22;;;;;;;74.30;66.20;;;;;;;7.75;71.23;99873.61;109396;1263;22063;-76
2022/02/04 14:00:31;;;;;;;54.70;49.30;;;;;;;7.65;71.24;99864.98;109249;1267;21980;-76
2022/02/04 14:03:16;;;;;;;50.80;45.70;;;;;;;7.62;71.26;99864.30;109192;1262;23063;-76
2022/02/04 14:05:58;;;;;;;38.80;34.80;;;;;;;7.58;71.19;99864.75;109994;1262;22035;-75
2022/02/04 14:08:36;;;;;;;37.80;34.00;;;;;;;7.56;71.35;99864.03;110031;1256;21979;-77
2022/02/04 14:11:08;;;;;;;31.20;27.90;;;;;;;7.54;71.28;99865.51;110113;1256;22103;-77
2022/02/04 14:13:58;;;;;;;43.20;36.70;;;;;;;7.50;71.15;99864.97;110578;1256;22091;-75
2022/02/04 14:16:28;;;;;;;40.50;32.80;;;;;;;7.48;71.26;99868.84;110402;1256;22992;-75
2022/02/04 14:18:57;;;;;;;39.10;35.10;;;;;;;7.48;71.33;99869.70;110519;1257;22034;-76
2022/02/04 14:21:35;;;;;;;33.10;29.50;;;;;;;7.49;71.15;99866.67;109957;1262;21949;-75
2022/02/04 14:24:10;;;;;;;27.70;24.80;;;;;;;7.51;71.24;99867.70;109479;1264;22132;-75
2022/02/04 14:26:45;;;;;;;28.10;25.30;;;;;;;7.50;71.19;99863.52;109495;1262;23617;-76
2022/02/04 14:34:59;;;;;;;52.70;46.90;;;;;;;7.40;71.13;99852.02;109836;1260;21979;-77
2022/02/04 14:52:24;;;;;;;42.30;36.70;;;;;;;7.43;71.33;99819.84;110542;1256;23722;-77
2022/02/04 14:54:48;;;;;;;48.70;40.70;;;;;;;7.43;71.21;99819.68;110264;1256;23081;-77
2022/02/04 15:00:33;;;;;;;38.20;32.10;;;;;;;7.43;71.09;99824.08;109990;1259;22044;-75
2022/02/04 15:03:16;;;;;;;34.40;28.20;;;;;;;7.40;70.97;99821.73;110181;1259;21983;-76
2022/02/04 15:06:01;;;;;;;33.20;28.90;;;;;;;7.36;70.89;99820.77;110488;1256;22002;-75
2022/02/04 15:08:54;;;;;;;36.50;32.10;;;;;;;7.30;70.90;99825.02;110562;1253;23679;-76
2022/02/04 15:11:31;;;;;;;34.50;28.40;;;;;;;7.26;70.87;99822.65;110548;1256;21972;-77
2022/02/04 15:14:08;;;;;;;36.60;32.70;;;;;;;7.23;70.89;99822.66;110476;1253;22731;-76
2022/02/04 15:16:49;;;;;;;36.40;31.80;;;;;;;7.20;71.00;99824.80;110652;1250;22177;-76
2022/02/04 15:19:23;;;;;;;40.20;35.90;;;;;;;7.19;70.84;99822.65;110866;1250;23625;-77
2022/02/04 15:21:57;;;;;;;45.50;40.70;;;;;;;7.18;70.90;99820.52;110805;1250;22760;-76
2022/02/04 15:24:26;;;;;;;39.50;35.40;;;;;;;7.18;70.92;99815.79;110740;1250;21965;-76
2022/02/04 15:26:58;;;;;;;42.40;37.60;;;;;;;7.17;70.93;99810.06;110785;1248;21965;-77
2022/02/04 15:29:31;;;;;;;46.60;41.60;;;;;;;7.17;70.84;99804.73;110731;1250;23715;-76
2022/02/04 15:32:13;;;;;;;57.20;48.20;;;;;;;7.18;70.97;99803.54;110985;1250;22977;-76
2022/02/04 15:34:55;;;;;;;;;;;;;;;;;;;;;
2022/02/04 15:37:30;;;;;;;55.50;45.70;;;;;;;7.19;70.95;99809.36;110896;1250;21973;-75
2022/02/04 15:40:01;;;;;;;45.90;40.20;;;;;;;7.19;70.93;99810.05;110907;1250;21979;-76
2022/02/04 15:42:37;;;;;;;47.00;41.10;;;;;;;7.19;70.94;99800.63;110630;1256;23700;-75
2022/02/04 15:49:19;;;;;;;49.10;39.80;;;;;;;7.22;71.04;99796.23;109545;1261;21989;-75
2022/02/04 16:05:13;;;;;;;41.60;35.00;;;;;;;7.19;70.95;99798.52;109834;1260;23583;-76
2022/02/04 16:07:44;;;;;;;37.50;32.70;;;;;;;7.16;70.72;99795.30;109911;1259;263061;-76
2022/02/04 16:18:26;;;;;;;42.30;30.00;;;;;;;7.03;70.91;99778.77;109639;1260;23055;-76
2022/02/04 16:23:32;;;;;;;45.30;35.20;;;;;;;7.00;71.03;99776.98;109443;1262;22069;-75
2022/02/04 16:28:43;;;;;;;45.50;36.80;;;;;;;7.03;71.15;99768.27;109399;1262;22767;-76
2022/02/04 16:31:18;;;;;;;51.90;42.60;;;;;;;7.03;71.10;99766.42;109876;1260;23702;-76
2022/02/04 16:34:09;;;;;;;42.30;34.20;;;;;;;7.04;71.16;99767.84;109900;1261;24027;-76
2022/02/04 16:37:05;;;;;;;46.40;37.70;;;;;;;7.05;71.16;99763.71;109901;1261;21995;-76
2022/02/04 16:39:36;;;;;;;43.20;34.40;;;;;;;7.07;71.16;99759.61;110068;1258;22262;-76
2022/02/04 16:42:15;;;;;;;56.80;41.80;;;;;;;7.11;71.06;99757.85;110434;1256;22952;-75
2022/02/04 16:44:44;;;;;;;51.70;40.30;;;;;;;7.11;70.89;99751.71;110577;1256;23609;-75
2022/02/04 16:47:16;;;;;;;;;;;;;;;7.09;70.70;99744.58;110102;1257;23586;-76
2022/02/04 16:50:14;;;;;;;48.90;41.80;;;;;;;6.96;70.70;99741.00;110313;1259;23681;-77
2022/02/04 16:52:52;;;;;;;44.00;38.40;;;;;;;6.93;70.84;99740.46;109893;1259;22173;-76
2022/02/04 16:55:23;;;;;;;39.20;33.70;;;;;;;6.91;70.76;99740.46;109959;1259;21984;-76
2022/02/04 16:58:00;;;;;;;41.50;36.30;;;;;;;6.88;70.70;99743.14;110083;1259;22382;-76
2022/02/04 17:00:58;;;;;;;38.40;33.20;;;;;;;6.85;70.81;99741.95;110080;1259;21986;-75
2022/02/04 17:03:31;;;;;;;43.40;37.50;;;;;;;6.84;71.05;99742.05;110339;1259;23617;-75
2022/02/04 17:06:09;;;;;;;46.60;35.80;;;;;;;6.84;70.96;99743.31;110377;1253;23763;-77
2022/02/04 17:08:48;;;;;;;44.70;37.80;;;;;;;6.82;70.92;99736.02;109862;1259;21978;-75
2022/02/04 17:11:33;;;;;;;50.70;40.20;;;;;;;6.76;71.01;99730.30;110076;1259;22037;-76
2022/02/04 17:14:03;;;;;;;58.20;47.50;;;;;;;6.73;71.25;99733.98;110283;1259;23060;-76
2022/02/04 17:16:32;;;;;;;51.90;41.60;;;;;;;6.70;71.21;99731.15;110452;1256;24979;-75
2022/02/04 17:19:05;;;;;;;56.50;48.90;;;;;;;6.66;71.32;99727.20;109627;1262;24151;-75
2022/02/04 17:21:40;;;;;;;49.70;42.40;;;;;;;6.62;71.53;99721.64;109009;1267;22002;-75
2022/02/04 17:24:13;;;;;;;55.70;44.70;;;;;;;6.60;71.70;99719.69;109162;1267;22007;-76
2022/02/04 17:26:46;;;;;;;51.80;42.80;;;;;;;6.60;71.96;99723.73;109489;1261;22386;-76
2022/02/04 17:29:15;;;;;;;54.40;42.90;;;;;;;6.63;72.15;99724.85;109289;1261;22225;-75
2022/02/04 17:31:46;;;;;;;66.50;55.90;;;;;;;6.61;72.05;99725.35;109664;1264;22104;-75
2022/02/04 17:34:16;;;;;;;49.20;42.60;;;;;;;6.60;72.31;99723.34;109695;1261;22748;-75
2022/02/04 17:36:46;;;;;;;57.10;45.40;;;;;;;6.60;72.21;99727.60;109724;1256;22755;-75
2022/02/04 17:39:17;;;;;;;50.30;40.50;;;;;;;6.61;72.27;99730.50;110300;1251;21989;-74
2022/02/04 17:41:54;;;;;;;51.90;43.20;;;;;;;6.62;72.28;99728.46;110717;1251;23025;-75
2022/02/04 17:44:26;;;;;;;45.50;37.00;;;;;;;6.62;72.30;99732.96;110870;1250;22806;-76
2022/02/04 17:46:59;;;;;;;35.00;31.20;;;;;;;6.62;72.25;99734.00;110244;1256;22089;-77
2022/02/04 17:49:47;;;;;;;;;;;;;;;6.61;72.28;99730.31;110284;1256;23087;-75
2022/02/04 17:52:21;;;;;;;33.50;29.20;;;;;;;6.55;72.50;99720.36;109892;1260;21984;-77
2022/02/04 17:55:31;;;;;;;53.30;40.80;;;;;;;6.55;72.40;99717.56;109806;1260;22995;-76
2022/02/04 18:02:26;;;;;;;74.20;47.20;;;;;;;6.64;72.44;99715.40;109627;1262;22962;-75
2022/02/04 18:05:28;;;;;;;52.30;38.90;;;;;;;6.69;72.31;99715.48;109879;1258;23615;-76
2022/02/04 18:07:38;;;;;;;36.10;29.80;;;;;;;6.74;72.05;99714.95;110612;1256;22088;-75
2022/02/04 18:10:09;;;;;;;51.20;38.30;;;;;;;6.75;71.79;99712.05;110462;1253;21960;-75
2022/02/04 18:12:39;;;;;;;43.30;38.60;;;;;;;6.73;71.45;99709.15;110563;1250;22371;-76
2022/02/04 18:15:13;;;;;;;39.80;32.90;;;;;;;6.67;71.21;99704.99;110808;1253;22183;-78
2022/02/04 18:17:42;;;;;;;40.20;31.40;;;;;;;6.66;71.23;99698.63;110780;1253;23001;-78